Darstellungsparameter: Aktuell verwendete Einstellungen:
Skalierung der Graphiken ... ?
xyx+y,   Skalierungsfaktor:      Skalierung: Modus: x, Faktor: 1
Darstellungszeitraum ... ?
Vom - - bis: - -   Zeitraum: 25.02.2021 - 25.02.2021
Min/Max/Avg-Anzeige ... ?
Zeige MMA aktuell
Zeige MMA Monat
Zeige MMA alles
Zeige --A aktuell
Zeige --A Monat
Zeige --A alles
Keine MMA-Anzeige
MMA:
Average (ber die Originaldaten)
MMA-Basis: 25.02.2021 - 25.02.2021
Quicknavigation für Darstellung... ?
Tage:      1T, 2T, 3T, 5T -1T -2T -3T -5T +1T +2T +3T +5T
Wochen: 1W, 2W, 3W -1W -2W -3W +1W +2W +3W
Monate: 1M, 3M, 6M -1M -3M -6M +1M +3M +6M
Jahre:    1J, 3J, 5J, 10J -1J -3J -5J -10J +1J +3J +5J +10J
Nutze für die Darstellung ... ?
Originaldaten oder Mittelwerte auf ...
Stundenbasis Tagesbasis Wochenbasis
Monatsbasis Jahresbasis      Datenbasis: Original-Daten
Darstellen als:
Statistik (Auto) Statistik J:M      Darstellung:

Der gewünschte Datumsbereich war nicht gültig/verfügbar und wurde korrigiert....
Das angegebene Enddatum (16.05.2025 23:59:59) liegt in der Zukunft.
Das angegebene Startdatum (16.05.2025 00:00:00) liegt in der Zukunft.


Zur Graphik,    zurück zur Übersicht aller Sensoren.
 
Tabellarische Datenbersicht: ?
 
Sensor: Nr:Datum:Temp:Abs-Feuchte:Windchill:Wind:
Aussen-T/F 1 25-02-2021 01:00:00 6.7 C 7.22 g/m*3 6.7 C 1.6 km/h
2 25-02-2021 01:05:00 6.7 C 7.22 g/m*3 6.7 C 0 km/h
3 25-02-2021 01:10:00 6.6 C 7.17 g/m*3 6.6 C 0 km/h
4 25-02-2021 01:15:00 6.5 C 7.12 g/m*3 6.5 C 0 km/h
5 25-02-2021 01:20:00 6.4 C 7 g/m*3 6.4 C 1.6 km/h
6 25-02-2021 01:25:00 6.2 C 6.91 g/m*3 6.2 C 0 km/h
7 25-02-2021 01:30:00 6.1 C 6.87 g/m*3 6.1 C 0 km/h
8 25-02-2021 01:35:00 6 C 6.82 g/m*3 6 C 0 km/h
9 25-02-2021 01:40:00 5.8 C 6.73 g/m*3 5.8 C 0 km/h
10 25-02-2021 01:45:00 5.7 C 6.69 g/m*3 5.7 C 1.6 km/h
11 25-02-2021 01:50:00 5.6 C 6.65 g/m*3 5.6 C 1.6 km/h
12 25-02-2021 01:55:00 5.6 C 6.65 g/m*3 5.6 C 0 km/h
13 25-02-2021 02:00:00 5.6 C 6.72 g/m*3 5.6 C 0 km/h
14 25-02-2021 02:05:00 5.7 C 6.76 g/m*3 5.7 C 0 km/h
15 25-02-2021 02:10:00 5.8 C 6.81 g/m*3 5.8 C 0 km/h
16 25-02-2021 02:15:00 5.8 C 6.81 g/m*3 5.8 C 0 km/h
17 25-02-2021 02:20:00 5.7 C 6.76 g/m*3 5.7 C 0 km/h
18 25-02-2021 02:25:00 5.6 C 6.72 g/m*3 5.6 C 0 km/h
19 25-02-2021 02:30:00 5.6 C 6.72 g/m*3 5.6 C 0 km/h
20 25-02-2021 02:35:00 5.6 C 6.72 g/m*3 5.6 C 0 km/h
21 25-02-2021 02:40:00 5.6 C 6.72 g/m*3 5.6 C 0 km/h
22 25-02-2021 02:45:00 5.5 C 6.67 g/m*3 5.5 C 0 km/h
23 25-02-2021 02:50:00 5.5 C 6.67 g/m*3 5.5 C 0 km/h
24 25-02-2021 02:55:00 5.4 C 6.63 g/m*3 5.4 C 0 km/h
25 25-02-2021 03:00:00 5.4 C 6.63 g/m*3 5.4 C 0 km/h
Sensor: Nr:Datum:Temp:Abs-Feuchte:Windchill:Wind:
Aussen-T/F 26 25-02-2021 03:05:00 5.4 C 6.63 g/m*3 5.4 C 0 km/h
27 25-02-2021 03:10:00 5.3 C 6.58 g/m*3 5.3 C 0 km/h
28 25-02-2021 03:15:00 5.2 C 6.54 g/m*3 5.2 C 0 km/h
29 25-02-2021 03:20:00 5.3 C 6.58 g/m*3 5.3 C 0 km/h
30 25-02-2021 03:25:00 5.3 C 6.58 g/m*3 5.3 C 0 km/h
31 25-02-2021 03:30:00 5.3 C 6.58 g/m*3 5.3 C 0 km/h
32 25-02-2021 03:35:00 5.2 C 6.54 g/m*3 5.2 C 0 km/h
33 25-02-2021 03:40:00 5.1 C 6.5 g/m*3 5.1 C 0 km/h
34 25-02-2021 03:45:00 5 C 6.46 g/m*3 5 C 0 km/h
35 25-02-2021 03:50:00 4.9 C 6.41 g/m*3 4.9 C 0 km/h
36 25-02-2021 03:55:00 4.9 C 6.41 g/m*3 4.9 C 0 km/h
37 25-02-2021 04:00:00 4.8 C 6.37 g/m*3 4.8 C 0 km/h
38 25-02-2021 04:05:00 4.7 C 6.33 g/m*3 4.7 C 0 km/h
39 25-02-2021 04:10:00 4.6 C 6.29 g/m*3 4.6 C 0 km/h
40 25-02-2021 04:15:00 4.5 C 6.24 g/m*3 4.5 C 0 km/h
41 25-02-2021 04:20:00 4.5 C 6.24 g/m*3 4.5 C 0 km/h
42 25-02-2021 04:25:00 4.4 C 6.2 g/m*3 4.4 C 0 km/h
43 25-02-2021 04:30:00 4.5 C 6.24 g/m*3 4.5 C 0 km/h
44 25-02-2021 04:35:00 4.4 C 6.2 g/m*3 4.4 C 0 km/h
45 25-02-2021 04:40:00 4.3 C 6.16 g/m*3 4.3 C 0 km/h
46 25-02-2021 04:45:00 4.3 C 6.16 g/m*3 4.3 C 0 km/h
47 25-02-2021 04:50:00 4.3 C 6.16 g/m*3 4.3 C 0 km/h
48 25-02-2021 04:55:00 4.4 C 6.2 g/m*3 4.4 C 0 km/h
49 25-02-2021 05:00:00 4.4 C 6.2 g/m*3 4.4 C 0 km/h
50 25-02-2021 05:05:00 4.4 C 6.27 g/m*3 4.4 C 1.6 km/h
Sensor: Nr:Datum:Temp:Abs-Feuchte:Windchill:Wind:
Aussen-T/F 51 25-02-2021 05:10:00 4.4 C 6.27 g/m*3 4.4 C 0 km/h
52 25-02-2021 05:15:00 4.4 C 6.27 g/m*3 4.4 C 0 km/h
53 25-02-2021 05:20:00 4.3 C 6.16 g/m*3 4.3 C 0 km/h
54 25-02-2021 05:25:00 4.3 C 6.23 g/m*3 4.3 C 0 km/h
55 25-02-2021 05:30:00 4.2 C 6.19 g/m*3 4.2 C 0 km/h
56 25-02-2021 05:35:00 4.2 C 6.19 g/m*3 4.2 C 0 km/h
57 25-02-2021 05:40:00 4.1 C 6.08 g/m*3 4.1 C 0 km/h
58 25-02-2021 05:45:00 3.9 C 6 g/m*3 3.9 C 0 km/h
59 25-02-2021 05:50:00 3.8 C 5.96 g/m*3 3.8 C 0 km/h
60 25-02-2021 05:55:00 3.7 C 5.92 g/m*3 3.7 C 0 km/h
61 25-02-2021 06:00:00 3.7 C 5.92 g/m*3 3.7 C 0 km/h
62 25-02-2021 06:05:00 3.7 C 5.98 g/m*3 3.7 C 0 km/h
63 25-02-2021 06:10:00 3.7 C 5.98 g/m*3 3.7 C 0 km/h
64 25-02-2021 06:15:00 3.7 C 5.98 g/m*3 3.7 C 0 km/h
65 25-02-2021 06:20:00 3.8 C 6.02 g/m*3 3.8 C 0 km/h
66 25-02-2021 06:25:00 3.9 C 6.06 g/m*3 3.9 C 0 km/h
67 25-02-2021 06:30:00 3.9 C 6.06 g/m*3 3.9 C 0 km/h
68 25-02-2021 06:35:00 3.9 C 6.06 g/m*3 3.9 C 0 km/h
69 25-02-2021 06:40:00 3.8 C 6.02 g/m*3 3.8 C 0 km/h
70 25-02-2021 06:45:00 3.7 C 5.98 g/m*3 3.7 C 0 km/h
71 25-02-2021 06:50:00 3.7 C 5.98 g/m*3 3.7 C 0 km/h
72 25-02-2021 06:55:00 3.7 C 5.98 g/m*3 3.7 C 0 km/h
73 25-02-2021 07:00:00 3.7 C 5.98 g/m*3 3.7 C 0 km/h
74 25-02-2021 07:05:00 3.5 C 5.9 g/m*3 3.5 C 0 km/h
75 25-02-2021 07:10:00 3.4 C 5.86 g/m*3 3.4 C 0 km/h
Sensor: Nr:Datum:Temp:Abs-Feuchte:Windchill:Wind:
Aussen-T/F 76 25-02-2021 07:15:00 3.3 C 5.82 g/m*3 3.3 C 0 km/h
77 25-02-2021 07:20:00 3.3 C 5.82 g/m*3 3.3 C 0 km/h
78 25-02-2021 07:25:00 3.3 C 5.82 g/m*3 3.3 C 0 km/h
79 25-02-2021 07:30:00 3.3 C 5.82 g/m*3 3.3 C 0 km/h
80 25-02-2021 07:35:00 3.2 C 5.79 g/m*3 3.2 C 0 km/h
81 25-02-2021 07:40:00 3.2 C 5.79 g/m*3 3.2 C 0 km/h
82 25-02-2021 07:45:00 3.2 C 5.79 g/m*3 3.2 C 0 km/h
83 25-02-2021 07:50:00 3.3 C 5.82 g/m*3 3.3 C 0 km/h
84 25-02-2021 07:55:00 3.3 C 5.82 g/m*3 3.3 C 0 km/h
85 25-02-2021 08:00:00 3.4 C 5.86 g/m*3 3.4 C 0 km/h
86 25-02-2021 08:05:00 3.5 C 5.9 g/m*3 3.5 C 0 km/h
87 25-02-2021 08:10:00 3.5 C 5.9 g/m*3 3.5 C 0 km/h
88 25-02-2021 08:15:00 3.6 C 5.94 g/m*3 3.6 C 0 km/h
89 25-02-2021 08:20:00 3.7 C 5.98 g/m*3 3.7 C 0 km/h
90 25-02-2021 08:25:00 3.8 C 6.09 g/m*3 3.8 C 0 km/h
91 25-02-2021 08:30:00 3.9 C 6.06 g/m*3 3.9 C 0 km/h
92 25-02-2021 08:35:00 3.9 C 6.06 g/m*3 3.9 C 0 km/h
93 25-02-2021 08:40:00 3.9 C 6.06 g/m*3 3.9 C 0 km/h
94 25-02-2021 08:45:00 3.9 C 6.06 g/m*3 3.9 C 0 km/h
95 25-02-2021 08:50:00 3.9 C 6.06 g/m*3 3.9 C 0 km/h
96 25-02-2021 08:55:00 3.9 C 6.06 g/m*3 3.9 C 0 km/h
97 25-02-2021 09:00:00 3.9 C 6.06 g/m*3 3.9 C 0 km/h

Legende:
   Min
   Max


Maximal/Minimal-Werte vom 25.02.2021 - 25.02.2021

Sensor Min Max Avg
Temp
(Aussen-T/F)
3.2 °C
25-02-2021  07:35:00
6.7 °C
25-02-2021  01:00:00
4.55 °C
Abs-Feuchte
(Aussen-T/F)
5.79 g/m*3
25-02-2021  07:35:00
7.22 g/m*3
25-02-2021  01:00:00
6.23 g/m*3
Windchill
(Aussen-T/F)
3.2 C
25-02-2021  07:35:00
6.7 C
25-02-2021  01:00:00
4.5 C

Die Daten stammen von einer Davis Vantage Pro 2 Wetter-Station und werden unter Linux mit der Software wview2wettercgi und aufbereitet. Alle Angaben erfolgen ohne Gewähr für ihre Vollständigkeit oder Richtigkeit.
Kontakt: Rainer Krienke krienke@uni-koblenz.de . Meine Webseiten an der Uni Koblenz oder privat.
Version: $Revision: 0.78 $